This is the latest recevied weather packets stored in our database for station/object KE0PRS. If no packets are shown the sender has not sent any weather packets the latest 10 day(s).
| Time | Temp. | Humidity | Pressure | Rain* | Wind** | Luminosity | Snow |
|---|---|---|---|---|---|---|---|
| 1787768711 | 32.78° C | 48% | 1020.6 hPa | 0 mm | - | 692 W/m² | - |
| 1787768408 | 32.78° C | 48% | 1020.7 hPa | 0 mm | - | 769 W/m² | - |
| 1787768103 | 32.22° C | 50% | 1021 hPa | 0 mm | - | 775 W/m² | - |
| 1787767798 | 32.22° C | 47% | 1020.9 hPa | 0 mm | - | 769 W/m² | - |
| 1787767494 | 31.67° C | 51% | 1020.9 hPa | 0 mm | - | 770 W/m² | - |
| 1787767191 | 32.22° C | 48% | 1020.8 hPa | 0 mm | - | 760 W/m² | - |
| 1787766890 | 32.22° C | 44% | 1021 hPa | 0 mm | - | 762 W/m² | - |
| 1787766585 | 31.67° C | 53% | 1021 hPa | 0 mm | - | 754 W/m² | - |
| 1787766284 | 31.67° C | 52% | 1021.1 hPa | 0 mm | - | 751 W/m² | - |
| 1787765979 | 31.67° C | 52% | 1021.2 hPa | 0 mm | - | 734 W/m² | - |
| 1787765676 | 31.67° C | 54% | 1021.4 hPa | 0 mm | - | 741 W/m² | - |
| 1787765372 | 31.11° C | 51% | 1021.3 hPa | 0 mm | - | 728 W/m² | - |
| 1787765071 | 30.56° C | 57% | 1021.5 hPa | 0 mm | - | 720 W/m² | - |
| 1787764765 | 30.56° C | 57% | 1021.6 hPa | 0 mm | - | 704 W/m² | - |
| 1787764461 | 31.11° C | 57% | 1021.5 hPa | 0 mm | - | 690 W/m² | - |
| 1787764157 | 31.11° C | 55% | 1021.6 hPa | 0 mm | - | 690 W/m² | - |
| 1787763852 | 31.11° C | 57% | 1021.5 hPa | 0 mm | - | 676 W/m² | - |
| 1787763547 | 30° C | 61% | 1021.5 hPa | 0 mm | - | 672 W/m² | - |
| 1787763243 | 30° C | 60% | 1021.4 hPa | 0 mm | - | 657 W/m² | - |
| 1787762938 | 30° C | 60% | 1021.7 hPa | 0 mm | - | 631 W/m² | - |
| 1787762637 | 29.44° C | 63% | 1021.6 hPa | 0 mm | - | 627 W/m² | - |
| 1787762334 | 28.89° C | 63% | 1021.5 hPa | 0 mm | - | 615 W/m² | - |
| 1787762034 | 28.89° C | 64% | 1021.7 hPa | 0 mm | - | 602 W/m² | - |
| 1787761734 | 28.89° C | 63% | 1021.6 hPa | 0 mm | - | 586 W/m² | - |
| 1787761429 | 28.33° C | 68% | 1021.7 hPa | 0 mm | - | 575 W/m² | - |
* Rain latest hour (hover to see other rain measurements)
** Current wind speed in m/s (hover to see current wind gust speed)